Latest Coastal Weather Observations for Montague Island

IDN60701

Issued at 4:22 pm EDT Thursday 25 February 2021 (issued every 10 minutes, with the page automatically refreshed every 10 minutes)

About coastal observations | Map of coastal stations | Coastal observations for NSW | Marine services | Other Formats
Station Details ID: 069017 Name: MONTAGUE ISLAND LIGHTHOUSE Lat: -36.25 Lon: 150.23 Height: 52.0 m
Data from the previous 72 hours. | See also: Recent months at Montague Island
Date/Time
EDT
Wind Sea
Height
m
Swell Vis
km
Cloud Weather Temp
°C
Press
MSL
hPa
Rain since
9am
mm
Dir  Spd
kts
Gust
kts
Height
m
Period
s
Dir
25/04:00pm NE 11 14 - - - - - - - 22.3 1005.7 0.0
25/03:30pm NNE 12 15 - - - - - - - 22.3 1006.0 0.0
25/03:00pm NNE 13 16 - - - - - - - 22.0 1006.7 0.0
25/02:30pm NNE 11 15 - - - - - - - 22.3 1007.1 0.0
25/02:00pm NNE 12 15 - - - - - - - 21.7 1007.6 0.0
25/01:30pm N 9 12 - - - - - - - 22.3 1008.4 0.0
25/01:00pm N 11 14 - - - - - - - 21.4 1009.0 0.0
25/12:30pm NNW 9 12 - - - - - - - 21.2 1009.3 0.0
25/12:00pm NNW 14 18 - - - - - - - 21.2 1009.7 0.0
25/11:30am NNW 12 15 - - - - - - - 20.5 1010.5 0.0
25/11:00am NNW 9 13 - - - - - - - 20.8 1010.8 0.0
25/10:30am NW 4 7 - - - - - - - 20.5 1010.5 0.0
25/10:00am N 3 7 - - - - - - - 20.9 1010.8 0.0
25/09:30am NNE 4 6 - - - - - - - 20.1 1011.2 0.0
25/09:00am ESE 3 5 - - - - - - - 19.9 1010.7 1.8
25/08:30am ESE 3 4 - - - - - - - 19.8 1010.9 1.8
25/08:00am SE 2 3 - - - - - - - 18.8 1010.8 1.8
25/07:30am W 2 3 - - - - - - - 18.1 1010.7 1.8
25/07:00am SW 4 5 - - - - - - - 17.4 1010.6 1.8
25/06:30am SW 5 6 - - - - - - - 17.5 1010.1 1.8
25/06:00am SSW 7 8 - - - - - - - 17.8 1010.0 1.8
25/05:30am WSW 4 5 - - - - - - - 17.9 1010.3 1.8
25/05:00am SW 5 6 - - - - - - - 17.7 1010.3 1.8
25/04:30am WSW 6 8 - - - - - - - 17.7 1010.7 1.8
25/04:00am W 6 7 - - - - - - - 17.4 1011.1 1.8
25/03:30am W 6 8 - - - - - - - 17.8 1011.7 1.8
25/03:00am W 8 10 - - - - - - - 17.6 1011.8 1.8
25/02:30am WSW 10 13 - - - - - - - 18.1 1012.3 1.8
25/02:00am WSW 10 12 - - - - - - - 18.2 1012.8 1.8
25/01:30am W 11 13 - - - - - - - 18.0 1013.3 1.8
25/01:00am ENE 14 17 - - - - - - - 19.9 1013.8 1.8
25/12:30am ENE 16 20 - - - - - - - 20.1 1014.0 1.8
25/12:00am ENE 20 23 - - - - - - - 19.9 1014.1 1.8
 
Date/Time
EDT
Wind Sea
Height
m
Swell Vis
km
Cloud Weather Temp
°C
Press
MSL
hPa
Rain since
9am
mm
Dir  Spd
kts
Gust
kts
Height
m
Period
s
Dir
24/11:30pm ENE 21 24 - - - - - - - 19.7 1014.5 1.8
24/11:00pm E 20 24 - - - - - - - 20.0 1014.9 1.8
24/10:30pm E 17 20 - - - - - - - 19.3 1015.3 1.8
24/10:00pm ENE 20 24 - - - - - - - 18.9 1015.7 1.8
24/09:30pm ENE 21 25 - - - - - - - 18.9 1016.0 1.8
24/09:00pm ENE 22 25 - - - - - - Recent precip. 19.2 1016.2 1.8
24/08:30pm ENE 19 23 - - - - - - - 19.1 1015.9 1.8
24/08:16pm E 8 21 - - - - - - - 18.5 1016.0 1.8
24/08:00pm SE 4 7 - - - - - - - 18.1 1016.4 1.0
24/07:30pm SW 6 8 - - - - - - - 17.9 1016.3 0.0
24/07:00pm SW 6 7 - - - - - - - 17.7 1016.5 0.0
24/06:30pm SW 5 7 - - - - - - - 17.5 1016.6 0.0
24/06:00pm SW 6 8 - - - - - - - 17.3 1016.8 0.0
24/05:30pm SSW 5 7 - - - - - - - 17.6 1017.1 0.0
24/05:00pm S 6 8 - - - - - - - 17.8 1017.3 0.0
24/04:30pm SSE 8 11 - - - - - - - 18.6 1017.4 0.0
24/04:00pm SSW 10 12 - - - - - - - 18.9 1017.4 0.0
24/03:30pm SSW 10 14 - - - - - - - 19.1 1017.7 0.0
24/03:00pm SSW 9 13 - - - - - - - 18.4 1018.3 0.0
24/02:30pm SW 9 12 - - - - - - - 18.2 1018.9 0.0
24/02:00pm SSW 10 13 - - - - - - - 18.7 1019.3 0.0
24/01:30pm SSW 10 13 - - - - - - - 18.6 1019.4 0.0
24/01:00pm SSW 10 15 - - - - - - - 18.6 1019.6 0.0
24/12:30pm SSW 11 15 - - - - - - - 19.1 1020.0 0.0
24/12:00pm SW 11 15 - - - - - - - 18.1 1020.3 0.0
24/11:30am SSW 11 15 - - - - - - - 18.2 1020.5 0.0
24/11:00am SW 12 16 - - - - - - - 17.6 1020.6 0.0
24/10:30am SW 12 16 - - - - - - - 17.6 1020.6 0.0
24/10:00am SSW 11 16 - - - - - - - 16.9 1020.4 0.0
24/09:30am SW 13 17 - - - - - - - 16.7 1020.2 0.0
24/09:00am SW 13 19 - - - - - - - 16.7 1019.8 0.0
24/08:30am SW 13 17 - - - - - - - 16.7 1019.9 0.0
24/08:00am SW 13 17 - - - - - - - 16.6 1019.6 0.0
24/07:30am SW 12 16 - - - - - - - 16.0 1019.2 0.0
24/07:00am SW 12 17 - - - - - - - 15.7 1019.2 0.0
24/06:30am SW 13 17 - - - - - - - 15.7 1018.8 0.0
24/06:00am SW 16 19 - - - - - - - 15.8 1018.4 0.0
24/05:30am SW 16 21 - - - - - - - 15.8 1018.4 0.0
24/05:00am SW 15 19 - - - - - - - 15.8 1018.2 0.0
24/04:30am SW 15 19 - - - - - - - 15.8 1018.4 0.0
24/04:00am SSW 13 17 - - - - - - - 16.3 1018.5 0.0
24/03:30am SSW 15 19 - - - - - - - 16.2 1018.2 0.0
24/03:00am SW 16 20 - - - - - - - 16.1 1018.3 0.0
24/02:30am SW 18 21 - - - - - - - 16.2 1018.5 0.0
24/02:00am SSW 15 21 - - - - - - - 16.5 1018.8 0.0
24/01:30am S 16 19 - - - - - - - 16.8 1018.8 0.0
24/01:00am S 15 20 - - - - - - - 17.0 1019.2 0.0
24/12:30am S 17 22 - - - - - - - 17.1 1019.4 0.0
24/12:00am S 17 22 - - - - - - - 17.0 1019.4 0.0
 
Date/Time
EDT
Wind Sea
Height
m
Swell Vis
km
Cloud Weather Temp
°C
Press
MSL
hPa
Rain since
9am
mm
Dir  Spd
kts
Gust
kts
Height
m
Period
s
Dir
23/11:30pm S 20 25 - - - - - - - 17.0 1019.1 0.0
23/11:00pm S 20 27 - - - - - - - 17.2 1019.0 0.0
23/10:30pm S 21 27 - - - - - - - 17.5 1018.8 0.0
23/10:00pm S 22 27 - - - - - - - 17.8 1018.6 0.0
23/09:30pm SSE 22 27 - - - - - - - 18.0 1018.4 0.0
23/09:00pm SSE 22 27 - - - - - - - 18.0 1017.9 0.0
23/08:30pm SSE 21 27 - - - - - - - 18.0 1017.4 0.0
23/08:00pm SSE 18 27 - - - - - - - 18.0 1016.8 0.0
23/07:33pm SSE 17 27 - - - - - - - 18.0 1016.3 0.0
23/07:30pm SSE 19 27 - - - - - - - 18.1 1016.3 0.0
23/07:00pm SSE 17 27 - - - - - - - 18.1 1015.9 0.0
23/06:32pm SSE 15 27 - - - - - - - 18.3 1015.7 0.0
23/06:30pm SSE 14 27 - - - - - - - 18.4 1015.7 0.0
23/06:00pm SSE 15 27 - - - - - - - 18.6 1015.4 0.0
23/05:36pm SSE 15 27 - - - - - - - 18.9 1015.1 0.0
23/05:30pm SSE 13 27 - - - - - - - 19.0 1015.1 0.0
23/05:00pm SSE 12 27 - - - - - - - 18.8 1014.9 0.0
23/04:31pm SSE 15 27 - - - - - - - 19.1 1014.8 0.0
23/04:30pm SSE 14 27 - - - - - - - 19.1 1014.8 0.0
23/04:00pm SSE 15 27 - - - - - - - 19.0 1014.7 0.0
23/03:37pm SSE 16 27 - - - - - - - 19.2 1014.5 0.0
23/03:30pm S 19 27 - - - - - - - 19.4 1014.5 0.0
23/03:10pm SSE 17 27 - - - - - - - 19.1 1014.5 0.0
23/03:00pm SSE 20 27 - - - - - - - 19.4 1014.6 0.0
23/02:30pm SSE 22 27 - - - - - - - 19.4 1014.7 0.0
23/02:00pm S 21 25 - - - - - - - 20.1 1014.7 0.0
23/01:30pm S 19 25 - - - - - - - 20.1 1014.6 0.0
23/01:00pm S 18 22 - - - - - - - 21.3 1014.6 0.0
23/12:30pm S 15 19 - - - - - - - 21.3 1014.7 0.0
23/12:00pm SSW 11 18 - - - - - - - 20.6 1014.6 0.0
23/11:30am SW 13 17 - - - - - - - 19.7 1014.7 0.0
23/11:00am SW 15 20 - - - - - - - 18.7 1014.5 0.0
23/10:30am SW 17 21 - - - - - - - 18.1 1014.4 0.0
23/10:00am WSW 21 25 - - - - - - - 17.7 1013.9 0.0
23/09:30am SW 18 22 - - - - - - - 17.1 1013.6 0.0
23/09:00am SW 22 27 - - - - - - - 17.5 1013.2 0.2
23/08:30am SW 22 27 - - - - - - - 17.1 1013.1 0.2
23/08:00am SW 20 26 - - - - - - - 16.6 1013.0 0.2
23/07:30am SSW 20 26 - - - - - - - 16.6 1012.6 0.2
23/07:00am SSW 21 27 - - - - - - - 16.7 1012.2 0.2
23/06:30am SSW 21 26 - - - - - - - 16.8 1011.7 0.2
23/06:00am SSW 19 26 - - - - - - - 16.7 1011.2 0.2
23/05:30am SSW 21 27 - - - - - - - 16.8 1011.0 0.2
23/05:00am SSW 22 27 - - - - - - - 17.0 1010.5 0.2
23/04:30am SSW 23 27 - - - - - - - 17.3 1010.0 0.2
23/04:00am SSW 21 27 - - - - - - - 17.4 1009.9 0.2
23/03:30am SSW 19 23 - - - - - - - 17.6 1010.1 0.2
23/03:00am SSW 19 26 - - - - - - - 17.7 1009.9 0.2
23/02:30am SSW 20 25 - - - - - - - 17.8 1009.8 0.2
23/02:00am SSW 20 25 - - - - - - - 17.9 1010.0 0.2
23/01:30am SSW 21 26 - - - - - - - 18.0 1010.3 0.2
23/01:00am SSW 21 27 - - - - - - - 18.1 1010.5 0.2
23/12:30am SSW 18 27 - - - - - - - 18.4 1010.5 0.2
23/12:00am SSW 16 27 - - - - - - - 18.5 1010.3 0.2
 
Date/Time
EDT
Wind Sea
Height
m
Swell Vis
km
Cloud Weather Temp
°C
Press
MSL
hPa
Rain since
9am
mm
Dir  Spd
kts
Gust
kts
Height
m
Period
s
Dir
22/11:49pm SSW 17 27 - - - - - - - 18.6 1010.2 0.2
22/11:30pm SSW 19 27 - - - - - - - 18.7 1010.3 0.2
22/11:00pm S 18 27 - - - - - - - 18.8 1010.3 0.2
22/10:30pm S 16 27 - - - - - - - 19.1 1010.3 0.2
22/10:25pm S 16 27 - - - - - - - 19.1 1010.3 0.2
22/10:00pm S 19 27 - - - - - - - 19.2 1010.2 0.2
22/09:36pm S 17 27 - - - - - - - 19.4 1010.0 0.2
22/09:30pm S 17 27 - - - - - - - 19.6 1009.9 0.2
22/09:00pm S 21 27 - - - - - - - 20.0 1009.3 0.2
22/08:30pm S 21 24 - - - - - - - 20.0 1009.2 0.2
22/08:00pm SSW 18 23 - - - - - - - 19.9 1009.0 0.2
22/07:30pm SSW 18 23 - - - - - - - 20.0 1008.6 0.2
22/07:00pm S 21 25 - - - - - - - 19.9 1008.2 0.2
22/06:30pm S 22 27 - - - - - - - 19.9 1007.9 0.2
22/06:00pm S 22 27 - - - - - - - 19.6 1007.8 0.2
22/05:30pm S 22 27 - - - - - - - 19.2 1007.7 0.2
22/05:00pm S 22 27 - - - - - - - 19.2 1007.3 0.2
22/04:30pm S 20 27 - - - - - - - 19.0 1007.3 0.2

Other formats

Comma delimited format used in spreadsheet applications
http://www.bom.gov.au/fwo/IDN60701/IDN60701.94939.axf

JavaScript Object Notation format (JSON) in row-major order
http://www.bom.gov.au/fwo/IDN60701/IDN60701.94939.json

Data quality

Most of these data are generated automatically and are frequently updated. Quality checks on data are not normally performed. It is possible for incorrect values to appear. Refer to information at About Latest Weather Observations and please check the disclaimer before using these data.